sensor_id;sensor_type;location;lat;lon;timestamp;temperature;humidity
49124;DHT22;48506;48.202;16.274;2023-02-28T00:01:13;2.70;81.60
49124;DHT22;48506;48.202;16.274;2023-02-28T00:03:40;2.60;81.60
49124;DHT22;48506;48.202;16.274;2023-02-28T00:06:07;2.60;81.20
49124;DHT22;48506;48.202;16.274;2023-02-28T00:08:34;2.60;81.60
49124;DHT22;48506;48.202;16.274;2023-02-28T00:11:05;2.60;81.50
49124;DHT22;48506;48.202;16.274;2023-02-28T00:13:34;2.60;81.80
49124;DHT22;48506;48.202;16.274;2023-02-28T00:16:11;2.50;82.30
49124;DHT22;48506;48.202;16.274;2023-02-28T00:18:39;2.50;82.50
49124;DHT22;48506;48.202;16.274;2023-02-28T00:21:05;2.50;82.80
49124;DHT22;48506;48.202;16.274;2023-02-28T00:23:32;2.50;83.10
49124;DHT22;48506;48.202;16.274;2023-02-28T00:25:59;2.40;83.10
49124;DHT22;48506;48.202;16.274;2023-02-28T00:28:25;2.40;82.70
49124;DHT22;48506;48.202;16.274;2023-02-28T00:30:51;2.40;83.20
49124;DHT22;48506;48.202;16.274;2023-02-28T00:33:17;2.40;83.10
49124;DHT22;48506;48.202;16.274;2023-02-28T00:35:44;2.40;83.00
49124;DHT22;48506;48.202;16.274;2023-02-28T00:38:13;2.30;83.00
49124;DHT22;48506;48.202;16.274;2023-02-28T00:40:39;2.30;83.10
49124;DHT22;48506;48.202;16.274;2023-02-28T00:43:05;2.30;83.10
49124;DHT22;48506;48.202;16.274;2023-02-28T00:45:31;2.30;83.10
49124;DHT22;48506;48.202;16.274;2023-02-28T00:47:57;2.30;83.40
49124;DHT22;48506;48.202;16.274;2023-02-28T00:50:23;2.30;83.60
49124;DHT22;48506;48.202;16.274;2023-02-28T00:52:48;2.20;83.30
49124;DHT22;48506;48.202;16.274;2023-02-28T00:55:14;2.20;83.60
49124;DHT22;48506;48.202;16.274;2023-02-28T00:57:40;2.20;84.20
49124;DHT22;48506;48.202;16.274;2023-02-28T01:00:07;2.20;83.90
49124;DHT22;48506;48.202;16.274;2023-02-28T01:02:34;2.20;84.60
49124;DHT22;48506;48.202;16.274;2023-02-28T01:05:00;2.20;85.30
49124;DHT22;48506;48.202;16.274;2023-02-28T01:07:26;2.20;85.00
49124;DHT22;48506;48.202;16.274;2023-02-28T01:09:51;2.20;85.50
49124;DHT22;48506;48.202;16.274;2023-02-28T01:12:17;2.20;85.30
49124;DHT22;48506;48.202;16.274;2023-02-28T01:14:43;2.20;85.40
49124;DHT22;48506;48.202;16.274;2023-02-28T01:17:09;2.10;85.20
49124;DHT22;48506;48.202;16.274;2023-02-28T01:19:35;2.20;85.20
49124;DHT22;48506;48.202;16.274;2023-02-28T01:22:05;2.20;84.80
49124;DHT22;48506;48.202;16.274;2023-02-28T01:24:32;2.20;85.40
49124;DHT22;48506;48.202;16.274;2023-02-28T01:26:58;2.10;85.70
49124;DHT22;48506;48.202;16.274;2023-02-28T01:29:24;2.20;86.10
49124;DHT22;48506;48.202;16.274;2023-02-28T01:31:50;2.20;86.10
49124;DHT22;48506;48.202;16.274;2023-02-28T01:34:16;2.20;85.80
49124;DHT22;48506;48.202;16.274;2023-02-28T01:36:45;2.30;84.90
49124;DHT22;48506;48.202;16.274;2023-02-28T01:39:11;2.20;84.80
49124;DHT22;48506;48.202;16.274;2023-02-28T01:41:38;2.30;84.90
49124;DHT22;48506;48.202;16.274;2023-02-28T01:47:07;2.30;84.90
49124;DHT22;48506;48.202;16.274;2023-02-28T01:49:33;2.30;84.70
49124;DHT22;48506;48.202;16.274;2023-02-28T01:51:59;2.30;84.40
49124;DHT22;48506;48.202;16.274;2023-02-28T01:54:31;2.30;84.40
49124;DHT22;48506;48.202;16.274;2023-02-28T01:59:37;2.40;84.20
49124;DHT22;48506;48.202;16.274;2023-02-28T02:02:06;2.40;84.50
49124;DHT22;48506;48.202;16.274;2023-02-28T02:04:38;2.40;84.40
49124;DHT22;48506;48.202;16.274;2023-02-28T02:07:06;2.40;84.20
49124;DHT22;48506;48.202;16.274;2023-02-28T02:09:32;2.40;83.60
49124;DHT22;48506;48.202;16.274;2023-02-28T02:11:59;2.40;84.00
49124;DHT22;48506;48.202;16.274;2023-02-28T02:14:45;2.40;83.80
49124;DHT22;48506;48.202;16.274;2023-02-28T02:17:34;2.40;84.00
49124;DHT22;48506;48.202;16.274;2023-02-28T02:34:26;2.40;84.00
49124;DHT22;48506;48.202;16.274;2023-02-28T02:37:15;2.40;84.00
49124;DHT22;48506;48.202;16.274;2023-02-28T02:42:25;2.40;83.80
49124;DHT22;48506;48.202;16.274;2023-02-28T02:45:03;2.40;84.00
49124;DHT22;48506;48.202;16.274;2023-02-28T02:47:31;2.30;84.20
49124;DHT22;48506;48.202;16.274;2023-02-28T02:50:02;2.30;83.90
49124;DHT22;48506;48.202;16.274;2023-02-28T02:52:36;2.30;84.00
49124;DHT22;48506;48.202;16.274;2023-02-28T02:55:03;2.30;83.80
49124;DHT22;48506;48.202;16.274;2023-02-28T02:57:33;2.20;83.90
49124;DHT22;48506;48.202;16.274;2023-02-28T03:00:03;2.20;83.90
49124;DHT22;48506;48.202;16.274;2023-02-28T03:02:32;2.10;83.90
49124;DHT22;48506;48.202;16.274;2023-02-28T03:05:02;2.20;84.50
49124;DHT22;48506;48.202;16.274;2023-02-28T03:07:29;2.20;84.80
49124;DHT22;48506;48.202;16.274;2023-02-28T03:09:56;2.20;84.70
49124;DHT22;48506;48.202;16.274;2023-02-28T03:12:40;2.20;84.70
49124;DHT22;48506;48.202;16.274;2023-02-28T03:15:19;2.20;84.80
49124;DHT22;48506;48.202;16.274;2023-02-28T03:18:04;2.10;84.60
49124;DHT22;48506;48.202;16.274;2023-02-28T03:23:16;2.10;84.80
49124;DHT22;48506;48.202;16.274;2023-02-28T03:29:15;2.00;84.80
49124;DHT22;48506;48.202;16.274;2023-02-28T03:34:24;1.90;84.90
49124;DHT22;48506;48.202;16.274;2023-02-28T03:36:55;1.90;85.10
49124;DHT22;48506;48.202;16.274;2023-02-28T03:39:44;1.90;85.20
49124;DHT22;48506;48.202;16.274;2023-02-28T03:42:25;1.90;85.50
49124;DHT22;48506;48.202;16.274;2023-02-28T03:44:58;1.80;85.50
49124;DHT22;48506;48.202;16.274;2023-02-28T03:47:49;1.80;85.50
49124;DHT22;48506;48.202;16.274;2023-02-28T03:50:27;1.80;85.70
49124;DHT22;48506;48.202;16.274;2023-02-28T03:53:35;1.80;86.10
49124;DHT22;48506;48.202;16.274;2023-02-28T03:57:04;1.70;86.00
49124;DHT22;48506;48.202;16.274;2023-02-28T03:59:57;1.70;86.00
49124;DHT22;48506;48.202;16.274;2023-02-28T04:02:04;1.60;86.00
49124;DHT22;48506;48.202;16.274;2023-02-28T04:04:29;1.60;86.10
49124;DHT22;48506;48.202;16.274;2023-02-28T04:07:07;1.60;86.20
49124;DHT22;48506;48.202;16.274;2023-02-28T04:09:33;1.60;86.50
49124;DHT22;48506;48.202;16.274;2023-02-28T04:11:59;1.60;86.40
49124;DHT22;48506;48.202;16.274;2023-02-28T04:14:25;1.60;86.70
49124;DHT22;48506;48.202;16.274;2023-02-28T04:16:52;1.60;86.50
49124;DHT22;48506;48.202;16.274;2023-02-28T04:19:18;1.60;86.90
49124;DHT22;48506;48.202;16.274;2023-02-28T04:21:48;1.60;87.10
49124;DHT22;48506;48.202;16.274;2023-02-28T04:24:17;1.60;86.90
49124;DHT22;48506;48.202;16.274;2023-02-28T04:26:51;1.60;87.00
49124;DHT22;48506;48.202;16.274;2023-02-28T04:29:35;1.50;87.00
49124;DHT22;48506;48.202;16.274;2023-02-28T04:32:02;1.60;87.20
49124;DHT22;48506;48.202;16.274;2023-02-28T04:34:30;1.50;87.50
49124;DHT22;48506;48.202;16.274;2023-02-28T04:36:57;1.60;87.40
49124;DHT22;48506;48.202;16.274;2023-02-28T04:39:24;1.60;87.30
49124;DHT22;48506;48.202;16.274;2023-02-28T04:41:50;1.60;87.30
49124;DHT22;48506;48.202;16.274;2023-02-28T04:44:16;1.60;87.30
49124;DHT22;48506;48.202;16.274;2023-02-28T04:46:43;1.50;87.30
49124;DHT22;48506;48.202;16.274;2023-02-28T04:49:11;1.50;87.20
49124;DHT22;48506;48.202;16.274;2023-02-28T04:51:37;1.50;87.50
49124;DHT22;48506;48.202;16.274;2023-02-28T04:54:04;1.50;87.70
49124;DHT22;48506;48.202;16.274;2023-02-28T04:56:30;1.50;87.70
49124;DHT22;48506;48.202;16.274;2023-02-28T04:58:56;1.40;87.70
49124;DHT22;48506;48.202;16.274;2023-02-28T05:01:23;1.50;87.80
49124;DHT22;48506;48.202;16.274;2023-02-28T05:03:51;1.50;88.10
49124;DHT22;48506;48.202;16.274;2023-02-28T05:06:17;1.40;87.80
49124;DHT22;48506;48.202;16.274;2023-02-28T05:08:43;1.40;88.40
49124;DHT22;48506;48.202;16.274;2023-02-28T05:11:21;1.40;88.60
49124;DHT22;48506;48.202;16.274;2023-02-28T05:13:48;1.40;88.60
49124;DHT22;48506;48.202;16.274;2023-02-28T05:16:17;1.50;89.00
49124;DHT22;48506;48.202;16.274;2023-02-28T05:18:43;1.40;88.60
49124;DHT22;48506;48.202;16.274;2023-02-28T05:23:56;1.40;88.80
49124;DHT22;48506;48.202;16.274;2023-02-28T05:26:22;1.40;88.70
49124;DHT22;48506;48.202;16.274;2023-02-28T05:28:48;1.40;89.10
49124;DHT22;48506;48.202;16.274;2023-02-28T05:31:15;1.30;89.00
49124;DHT22;48506;48.202;16.274;2023-02-28T05:33:41;1.30;88.80
49124;DHT22;48506;48.202;16.274;2023-02-28T05:36:07;1.20;88.90
49124;DHT22;48506;48.202;16.274;2023-02-28T05:38:35;1.20;89.20
49124;DHT22;48506;48.202;16.274;2023-02-28T05:41:07;1.20;89.40
49124;DHT22;48506;48.202;16.274;2023-02-28T05:43:34;1.20;89.30
49124;DHT22;48506;48.202;16.274;2023-02-28T05:46:03;1.10;89.40
49124;DHT22;48506;48.202;16.274;2023-02-28T05:48:30;1.10;89.50
49124;DHT22;48506;48.202;16.274;2023-02-28T05:50:57;1.10;89.60
49124;DHT22;48506;48.202;16.274;2023-02-28T05:53:23;1.10;89.80
49124;DHT22;48506;48.202;16.274;2023-02-28T05:55:49;1.10;90.00
49124;DHT22;48506;48.202;16.274;2023-02-28T05:58:16;1.10;90.10
49124;DHT22;48506;48.202;16.274;2023-02-28T06:00:42;1.10;90.00
49124;DHT22;48506;48.202;16.274;2023-02-28T06:03:08;1.10;90.10
49124;DHT22;48506;48.202;16.274;2023-02-28T06:05:34;1.10;90.10
49124;DHT22;48506;48.202;16.274;2023-02-28T06:08:01;1.10;90.20
49124;DHT22;48506;48.202;16.274;2023-02-28T06:10:26;1.20;90.30
49124;DHT22;48506;48.202;16.274;2023-02-28T06:12:54;1.20;90.40
49124;DHT22;48506;48.202;16.274;2023-02-28T06:15:20;1.20;90.50
49124;DHT22;48506;48.202;16.274;2023-02-28T06:17:46;1.20;90.60
49124;DHT22;48506;48.202;16.274;2023-02-28T06:20:12;1.30;90.60
49124;DHT22;48506;48.202;16.274;2023-02-28T06:22:39;1.30;90.50
49124;DHT22;48506;48.202;16.274;2023-02-28T06:25:06;1.40;90.80
49124;DHT22;48506;48.202;16.274;2023-02-28T06:27:33;1.40;90.70
49124;DHT22;48506;48.202;16.274;2023-02-28T06:29:59;1.50;90.80
49124;DHT22;48506;48.202;16.274;2023-02-28T06:32:25;1.50;90.70
49124;DHT22;48506;48.202;16.274;2023-02-28T06:34:51;1.60;90.80
49124;DHT22;48506;48.202;16.274;2023-02-28T06:37:18;1.70;90.80
49124;DHT22;48506;48.202;16.274;2023-02-28T06:39:44;1.70;90.70
49124;DHT22;48506;48.202;16.274;2023-02-28T06:42:10;1.80;90.70
49124;DHT22;48506;48.202;16.274;2023-02-28T06:44:36;1.90;90.50
49124;DHT22;48506;48.202;16.274;2023-02-28T06:47:05;1.90;90.40
49124;DHT22;48506;48.202;16.274;2023-02-28T06:49:34;1.90;90.40
49124;DHT22;48506;48.202;16.274;2023-02-28T06:52:00;2.00;90.40
49124;DHT22;48506;48.202;16.274;2023-02-28T06:54:27;2.00;90.40
49124;DHT22;48506;48.202;16.274;2023-02-28T06:56:53;2.10;90.30
49124;DHT22;48506;48.202;16.274;2023-02-28T06:59:20;2.10;90.20
49124;DHT22;48506;48.202;16.274;2023-02-28T07:01:46;2.20;90.20
49124;DHT22;48506;48.202;16.274;2023-02-28T07:04:12;2.20;90.20
49124;DHT22;48506;48.202;16.274;2023-02-28T07:06:39;2.30;90.30
49124;DHT22;48506;48.202;16.274;2023-02-28T07:09:05;2.30;90.10
49124;DHT22;48506;48.202;16.274;2023-02-28T07:11:31;2.30;90.00
49124;DHT22;48506;48.202;16.274;2023-02-28T07:13:58;2.40;90.00
49124;DHT22;48506;48.202;16.274;2023-02-28T07:16:25;2.50;90.00
49124;DHT22;48506;48.202;16.274;2023-02-28T07:18:55;2.50;89.40
49124;DHT22;48506;48.202;16.274;2023-02-28T07:21:21;2.60;89.30
49124;DHT22;48506;48.202;16.274;2023-02-28T07:23:47;2.70;89.30
49124;DHT22;48506;48.202;16.274;2023-02-28T07:26:16;2.80;88.80
49124;DHT22;48506;48.202;16.274;2023-02-28T07:28:44;2.90;88.50
49124;DHT22;48506;48.202;16.274;2023-02-28T07:31:11;3.00;88.00
49124;DHT22;48506;48.202;16.274;2023-02-28T07:33:40;3.00;87.90
49124;DHT22;48506;48.202;16.274;2023-02-28T07:36:09;3.10;87.20
49124;DHT22;48506;48.202;16.274;2023-02-28T07:38:44;3.10;86.70
49124;DHT22;48506;48.202;16.274;2023-02-28T07:41:11;3.20;86.60
49124;DHT22;48506;48.202;16.274;2023-02-28T07:43:38;3.20;86.30
49124;DHT22;48506;48.202;16.274;2023-02-28T07:46:10;3.20;86.20
49124;DHT22;48506;48.202;16.274;2023-02-28T07:48:37;3.30;86.50
49124;DHT22;48506;48.202;16.274;2023-02-28T07:51:03;3.40;86.20
49124;DHT22;48506;48.202;16.274;2023-02-28T07:53:30;3.50;85.50
49124;DHT22;48506;48.202;16.274;2023-02-28T07:55:57;3.50;85.40
49124;DHT22;48506;48.202;16.274;2023-02-28T07:58:24;3.50;85.60
49124;DHT22;48506;48.202;16.274;2023-02-28T08:00:50;3.70;85.80
49124;DHT22;48506;48.202;16.274;2023-02-28T08:03:18;3.70;85.10
49124;DHT22;48506;48.202;16.274;2023-02-28T08:05:45;3.70;84.90
49124;DHT22;48506;48.202;16.274;2023-02-28T08:08:11;3.80;85.40
49124;DHT22;48506;48.202;16.274;2023-02-28T08:10:38;3.90;85.70
49124;DHT22;48506;48.202;16.274;2023-02-28T08:13:04;4.00;85.90
49124;DHT22;48506;48.202;16.274;2023-02-28T08:15:30;4.10;84.70
49124;DHT22;48506;48.202;16.274;2023-02-28T08:17:56;4.20;84.50
49124;DHT22;48506;48.202;16.274;2023-02-28T08:20:24;4.40;84.50
49124;DHT22;48506;48.202;16.274;2023-02-28T08:22:50;4.60;84.20
49124;DHT22;48506;48.202;16.274;2023-02-28T08:25:17;4.70;83.80
49124;DHT22;48506;48.202;16.274;2023-02-28T08:27:43;4.80;83.80
49124;DHT22;48506;48.202;16.274;2023-02-28T08:30:13;4.90;83.80
49124;DHT22;48506;48.202;16.274;2023-02-28T08:32:40;5.00;83.40
49124;DHT22;48506;48.202;16.274;2023-02-28T08:35:06;5.10;82.10
49124;DHT22;48506;48.202;16.274;2023-02-28T08:37:32;5.10;82.00
49124;DHT22;48506;48.202;16.274;2023-02-28T08:39:58;5.20;82.70
49124;DHT22;48506;48.202;16.274;2023-02-28T08:42:24;5.20;81.40
49124;DHT22;48506;48.202;16.274;2023-02-28T08:44:50;5.30;81.50
49124;DHT22;48506;48.202;16.274;2023-02-28T08:47:16;5.50;82.40
49124;DHT22;48506;48.202;16.274;2023-02-28T08:49:42;5.70;81.00
49124;DHT22;48506;48.202;16.274;2023-02-28T08:52:08;5.80;80.60
49124;DHT22;48506;48.202;16.274;2023-02-28T08:54:35;5.90;80.60
49124;DHT22;48506;48.202;16.274;2023-02-28T08:57:03;6.00;80.70
49124;DHT22;48506;48.202;16.274;2023-02-28T08:59:29;6.30;80.40
49124;DHT22;48506;48.202;16.274;2023-02-28T09:01:55;6.40;79.60
49124;DHT22;48506;48.202;16.274;2023-02-28T09:04:22;6.50;78.80
49124;DHT22;48506;48.202;16.274;2023-02-28T09:06:48;6.50;78.50
49124;DHT22;48506;48.202;16.274;2023-02-28T09:09:15;6.60;78.90
49124;DHT22;48506;48.202;16.274;2023-02-28T09:11:43;6.60;79.00
49124;DHT22;48506;48.202;16.274;2023-02-28T09:14:08;6.70;78.30
49124;DHT22;48506;48.202;16.274;2023-02-28T09:16:34;6.80;77.20
49124;DHT22;48506;48.202;16.274;2023-02-28T09:19:01;6.90;77.50
49124;DHT22;48506;48.202;16.274;2023-02-28T09:21:27;7.10;77.90
49124;DHT22;48506;48.202;16.274;2023-02-28T09:23:53;7.10;77.40
49124;DHT22;48506;48.202;16.274;2023-02-28T09:26:25;7.20;77.10
49124;DHT22;48506;48.202;16.274;2023-02-28T09:28:52;7.30;76.60
49124;DHT22;48506;48.202;16.274;2023-02-28T09:31:21;7.30;76.00
49124;DHT22;48506;48.202;16.274;2023-02-28T09:33:52;7.40;77.00
49124;DHT22;48506;48.202;16.274;2023-02-28T09:36:19;7.60;77.10
49124;DHT22;48506;48.202;16.274;2023-02-28T09:38:45;7.80;76.50
49124;DHT22;48506;48.202;16.274;2023-02-28T09:41:18;7.80;75.80
49124;DHT22;48506;48.202;16.274;2023-02-28T09:43:50;7.90;76.30
49124;DHT22;48506;48.202;16.274;2023-02-28T09:46:37;8.10;75.20
49124;DHT22;48506;48.202;16.274;2023-02-28T09:49:12;8.00;75.10
49124;DHT22;48506;48.202;16.274;2023-02-28T09:51:47;8.10;74.10
49124;DHT22;48506;48.202;16.274;2023-02-28T09:54:19;8.20;75.60
49124;DHT22;48506;48.202;16.274;2023-02-28T09:56:51;8.40;75.40
49124;DHT22;48506;48.202;16.274;2023-02-28T09:59:59;8.50;75.00
49124;DHT22;48506;48.202;16.274;2023-02-28T10:05:21;8.70;74.00
49124;DHT22;48506;48.202;16.274;2023-02-28T10:10:42;9.20;73.70
49124;DHT22;48506;48.202;16.274;2023-02-28T10:13:25;9.40;73.10
49124;DHT22;48506;48.202;16.274;2023-02-28T10:16:14;9.50;71.10
49124;DHT22;48506;48.202;16.274;2023-02-28T10:18:51;9.50;71.10
49124;DHT22;48506;48.202;16.274;2023-02-28T10:21:36;9.50;71.70
49124;DHT22;48506;48.202;16.274;2023-02-28T10:27:15;9.60;71.20
49124;DHT22;48506;48.202;16.274;2023-02-28T10:29:44;9.50;71.10
49124;DHT22;48506;48.202;16.274;2023-02-28T10:32:14;9.50;71.50
49124;DHT22;48506;48.202;16.274;2023-02-28T10:34:41;9.60;72.20
49124;DHT22;48506;48.202;16.274;2023-02-28T10:37:07;9.90;72.50
49124;DHT22;48506;48.202;16.274;2023-02-28T10:42:18;9.60;71.20
49124;DHT22;48506;48.202;16.274;2023-02-28T10:44:45;9.70;72.20
49124;DHT22;48506;48.202;16.274;2023-02-28T10:47:16;9.80;71.90
49124;DHT22;48506;48.202;16.274;2023-02-28T10:49:48;9.90;71.40
49124;DHT22;48506;48.202;16.274;2023-02-28T10:52:33;9.80;71.50
49124;DHT22;48506;48.202;16.274;2023-02-28T10:55:19;10.00;71.90
49124;DHT22;48506;48.202;16.274;2023-02-28T10:57:46;10.20;70.80
49124;DHT22;48506;48.202;16.274;2023-02-28T11:00:19;10.30;69.90
49124;DHT22;48506;48.202;16.274;2023-02-28T11:02:48;10.20;70.00
49124;DHT22;48506;48.202;16.274;2023-02-28T11:05:33;10.20;69.40
49124;DHT22;48506;48.202;16.274;2023-02-28T11:08:20;10.20;69.30
49124;DHT22;48506;48.202;16.274;2023-02-28T11:10:55;10.20;68.80
49124;DHT22;48506;48.202;16.274;2023-02-28T11:13:35;10.10;69.40
49124;DHT22;48506;48.202;16.274;2023-02-28T11:16:06;9.90;68.50
49124;DHT22;48506;48.202;16.274;2023-02-28T11:21:21;9.80;70.80
49124;DHT22;48506;48.202;16.274;2023-02-28T11:23:51;10.10;70.90
49124;DHT22;48506;48.202;16.274;2023-02-28T11:29:11;10.10;68.40
49124;DHT22;48506;48.202;16.274;2023-02-28T11:31:38;9.90;68.70
49124;DHT22;48506;48.202;16.274;2023-02-28T11:34:24;10.10;70.20
49124;DHT22;48506;48.202;16.274;2023-02-28T11:36:52;10.60;70.70
49124;DHT22;48506;48.202;16.274;2023-02-28T11:39:19;11.00;69.10
49124;DHT22;48506;48.202;16.274;2023-02-28T11:42:09;11.40;68.30
49124;DHT22;48506;48.202;16.274;2023-02-28T11:52:56;11.60;65.70
49124;DHT22;48506;48.202;16.274;2023-02-28T11:58:27;11.50;64.70
49124;DHT22;48506;48.202;16.274;2023-02-28T12:01:32;11.00;63.30
49124;DHT22;48506;48.202;16.274;2023-02-28T12:04:25;10.70;66.70
49124;DHT22;48506;48.202;16.274;2023-02-28T12:07:13;11.10;67.20
49124;DHT22;48506;48.202;16.274;2023-02-28T12:15:20;11.80;65.60
49124;DHT22;48506;48.202;16.274;2023-02-28T12:28:47;10.80;65.20
49124;DHT22;48506;48.202;16.274;2023-02-28T12:31:25;10.80;65.50
49124;DHT22;48506;48.202;16.274;2023-02-28T12:33:55;11.10;64.80
49124;DHT22;48506;48.202;16.274;2023-02-28T12:36:22;11.50;64.80
49124;DHT22;48506;48.202;16.274;2023-02-28T12:39:06;11.60;64.10
49124;DHT22;48506;48.202;16.274;2023-02-28T12:41:44;11.50;64.20
49124;DHT22;48506;48.202;16.274;2023-02-28T12:44:15;11.80;64.30
49124;DHT22;48506;48.202;16.274;2023-02-28T12:46:51;12.30;64.70
49124;DHT22;48506;48.202;16.274;2023-02-28T12:49:31;12.90;63.60
49124;DHT22;48506;48.202;16.274;2023-02-28T12:52:00;13.30;62.20
49124;DHT22;48506;48.202;16.274;2023-02-28T12:54:38;13.80;62.00
49124;DHT22;48506;48.202;16.274;2023-02-28T13:05:38;14.00;57.90
49124;DHT22;48506;48.202;16.274;2023-02-28T13:10:45;13.00;57.70
49124;DHT22;48506;48.202;16.274;2023-02-28T13:13:16;12.60;58.60
49124;DHT22;48506;48.202;16.274;2023-02-28T13:16:04;12.40;58.20
49124;DHT22;48506;48.202;16.274;2023-02-28T13:18:35;12.10;58.10
49124;DHT22;48506;48.202;16.274;2023-02-28T13:21:07;11.80;59.30
49124;DHT22;48506;48.202;16.274;2023-02-28T13:24:07;11.60;60.10
49124;DHT22;48506;48.202;16.274;2023-02-28T13:42:22;15.10;55.20
49124;DHT22;48506;48.202;16.274;2023-02-28T13:50:23;15.60;54.10
49124;DHT22;48506;48.202;16.274;2023-02-28T14:06:53;15.20;51.80
49124;DHT22;48506;48.202;16.274;2023-02-28T14:09:35;14.90;53.20
49124;DHT22;48506;48.202;16.274;2023-02-28T14:15:27;15.40;52.00
49124;DHT22;48506;48.202;16.274;2023-02-28T14:17:55;15.70;51.70
49124;DHT22;48506;48.202;16.274;2023-02-28T14:20:24;15.70;51.20
49124;DHT22;48506;48.202;16.274;2023-02-28T14:25:52;16.40;50.10
49124;DHT22;48506;48.202;16.274;2023-02-28T14:31:42;17.40;48.90
49124;DHT22;48506;48.202;16.274;2023-02-28T14:36:37;17.30;47.70
49124;DHT22;48506;48.202;16.274;2023-02-28T14:39:13;17.20;47.80
49124;DHT22;48506;48.202;16.274;2023-02-28T14:41:42;17.40;47.30
49124;DHT22;48506;48.202;16.274;2023-02-28T14:44:24;17.70;46.80
49124;DHT22;48506;48.202;16.274;2023-02-28T14:46:54;18.20;46.30
49124;DHT22;48506;48.202;16.274;2023-02-28T14:49:31;18.40;46.00
49124;DHT22;48506;48.202;16.274;2023-02-28T14:54:36;17.90;44.90
49124;DHT22;48506;48.202;16.274;2023-02-28T14:57:03;17.10;45.90
49124;DHT22;48506;48.202;16.274;2023-02-28T14:59:32;16.60;46.70
49124;DHT22;48506;48.202;16.274;2023-02-28T15:02:21;16.20;47.40
49124;DHT22;48506;48.202;16.274;2023-02-28T15:07:45;16.80;47.40
49124;DHT22;48506;48.202;16.274;2023-02-28T15:10:25;16.90;47.30
49124;DHT22;48506;48.202;16.274;2023-02-28T15:15:20;15.80;47.40
49124;DHT22;48506;48.202;16.274;2023-02-28T15:17:55;14.80;48.50
49124;DHT22;48506;48.202;16.274;2023-02-28T15:20:23;14.20;49.40
49124;DHT22;48506;48.202;16.274;2023-02-28T15:22:51;14.20;51.20
49124;DHT22;48506;48.202;16.274;2023-02-28T15:25:20;15.30;50.10
49124;DHT22;48506;48.202;16.274;2023-02-28T15:27:50;16.60;48.30
49124;DHT22;48506;48.202;16.274;2023-02-28T15:30:29;17.10;46.80
49124;DHT22;48506;48.202;16.274;2023-02-28T15:35:44;17.60;46.00
49124;DHT22;48506;48.202;16.274;2023-02-28T15:38:24;17.90;44.80
49124;DHT22;48506;48.202;16.274;2023-02-28T15:40:54;17.00;45.10
49124;DHT22;48506;48.202;16.274;2023-02-28T15:46:01;15.50;46.60
49124;DHT22;48506;48.202;16.274;2023-02-28T15:48:34;14.30;48.10
49124;DHT22;48506;48.202;16.274;2023-02-28T15:51:02;13.50;49.70
49124;DHT22;48506;48.202;16.274;2023-02-28T15:53:38;13.10;50.50
49124;DHT22;48506;48.202;16.274;2023-02-28T15:56:28;13.00;51.70
49124;DHT22;48506;48.202;16.274;2023-02-28T15:58:57;13.40;52.30
49124;DHT22;48506;48.202;16.274;2023-02-28T16:01:37;13.80;51.60
49124;DHT22;48506;48.202;16.274;2023-02-28T16:04:17;14.00;51.40
49124;DHT22;48506;48.202;16.274;2023-02-28T16:07:00;14.10;51.40
49124;DHT22;48506;48.202;16.274;2023-02-28T16:09:27;14.00;50.90
49124;DHT22;48506;48.202;16.274;2023-02-28T16:11:59;13.10;51.80
49124;DHT22;48506;48.202;16.274;2023-02-28T16:14:29;12.30;52.90
49124;DHT22;48506;48.202;16.274;2023-02-28T16:17:07;11.60;53.80
49124;DHT22;48506;48.202;16.274;2023-02-28T16:19:36;11.00;55.10
49124;DHT22;48506;48.202;16.274;2023-02-28T16:22:02;10.50;56.70
49124;DHT22;48506;48.202;16.274;2023-02-28T16:24:29;10.10;57.30
49124;DHT22;48506;48.202;16.274;2023-02-28T16:26:56;9.80;58.10
49124;DHT22;48506;48.202;16.274;2023-02-28T16:29:27;9.50;58.70
49124;DHT22;48506;48.202;16.274;2023-02-28T16:31:54;9.20;59.20
49124;DHT22;48506;48.202;16.274;2023-02-28T16:34:21;9.00;60.00
49124;DHT22;48506;48.202;16.274;2023-02-28T16:36:48;8.80;60.20
49124;DHT22;48506;48.202;16.274;2023-02-28T16:39:15;8.60;60.90
49124;DHT22;48506;48.202;16.274;2023-02-28T16:41:45;8.40;61.30
49124;DHT22;48506;48.202;16.274;2023-02-28T16:44:26;8.20;61.90
49124;DHT22;48506;48.202;16.274;2023-02-28T16:46:54;8.10;62.60
49124;DHT22;48506;48.202;16.274;2023-02-28T16:49:20;7.90;62.60
49124;DHT22;48506;48.202;16.274;2023-02-28T16:51:46;7.80;63.20
49124;DHT22;48506;48.202;16.274;2023-02-28T16:54:13;7.70;63.30
49124;DHT22;48506;48.202;16.274;2023-02-28T16:56:44;7.50;63.70
49124;DHT22;48506;48.202;16.274;2023-02-28T16:59:11;7.40;64.30
49124;DHT22;48506;48.202;16.274;2023-02-28T17:01:39;7.30;64.50
49124;DHT22;48506;48.202;16.274;2023-02-28T17:04:05;7.20;65.00
49124;DHT22;48506;48.202;16.274;2023-02-28T17:06:33;7.10;65.10
49124;DHT22;48506;48.202;16.274;2023-02-28T17:08:59;7.00;65.30
49124;DHT22;48506;48.202;16.274;2023-02-28T17:11:25;7.00;65.70
49124;DHT22;48506;48.202;16.274;2023-02-28T17:13:51;6.90;66.10
49124;DHT22;48506;48.202;16.274;2023-02-28T17:16:27;6.80;66.20
49124;DHT22;48506;48.202;16.274;2023-02-28T17:19:00;6.70;66.50
49124;DHT22;48506;48.202;16.274;2023-02-28T17:21:27;6.60;67.00
49124;DHT22;48506;48.202;16.274;2023-02-28T17:23:54;6.50;67.10
49124;DHT22;48506;48.202;16.274;2023-02-28T17:26:23;6.50;67.30
49124;DHT22;48506;48.202;16.274;2023-02-28T17:28:51;6.40;67.60
49124;DHT22;48506;48.202;16.274;2023-02-28T17:31:20;6.30;67.90
49124;DHT22;48506;48.202;16.274;2023-02-28T17:33:46;6.30;67.80
49124;DHT22;48506;48.202;16.274;2023-02-28T17:36:24;6.20;68.00
49124;DHT22;48506;48.202;16.274;2023-02-28T17:38:52;6.10;68.40
49124;DHT22;48506;48.202;16.274;2023-02-28T17:41:19;6.10;68.70
49124;DHT22;48506;48.202;16.274;2023-02-28T17:43:45;6.10;68.70
49124;DHT22;48506;48.202;16.274;2023-02-28T17:46:21;6.00;68.80
49124;DHT22;48506;48.202;16.274;2023-02-28T17:48:48;5.90;69.20
49124;DHT22;48506;48.202;16.274;2023-02-28T17:51:15;5.90;69.20
49124;DHT22;48506;48.202;16.274;2023-02-28T17:53:43;5.90;69.50
49124;DHT22;48506;48.202;16.274;2023-02-28T17:56:20;5.80;69.90
49124;DHT22;48506;48.202;16.274;2023-02-28T17:58:48;5.70;70.10
49124;DHT22;48506;48.202;16.274;2023-02-28T18:01:14;5.60;70.40
49124;DHT22;48506;48.202;16.274;2023-02-28T18:03:40;5.60;70.80
49124;DHT22;48506;48.202;16.274;2023-02-28T18:06:09;5.60;71.00
49124;DHT22;48506;48.202;16.274;2023-02-28T18:08:39;5.50;70.90
49124;DHT22;48506;48.202;16.274;2023-02-28T18:11:05;5.40;71.60
49124;DHT22;48506;48.202;16.274;2023-02-28T18:13:31;5.40;70.90
49124;DHT22;48506;48.202;16.274;2023-02-28T18:15:59;5.40;70.50
49124;DHT22;48506;48.202;16.274;2023-02-28T18:18:25;5.40;71.20